createdAt,value
2017-11-23T00:00:18.087Z,3.55
2017-11-23T00:02:46.133Z,3.15
2017-11-23T00:05:14.154Z,3.72
2017-11-23T00:07:42.169Z,2.90
2017-11-23T00:10:10.207Z,3.05
2017-11-23T00:12:38.215Z,4.62
2017-11-23T00:15:07.012Z,3.20
2017-11-23T00:17:35.792Z,3.03
2017-11-23T00:20:03.830Z,2.85
2017-11-23T00:22:31.849Z,3.22
2017-11-23T00:24:59.903Z,3.42
2017-11-23T00:27:27.917Z,3.03
2017-11-23T00:29:55.982Z,3.70
2017-11-23T00:32:24.011Z,3.85
2017-11-23T00:34:52.796Z,3.00
2017-11-23T00:37:20.837Z,3.45
2017-11-23T00:39:48.864Z,2.70
2017-11-23T00:42:16.916Z,2.95
2017-11-23T00:44:44.948Z,2.55
2017-11-23T00:47:13.752Z,3.17
2017-11-23T00:49:42.574Z,3.33
2017-11-23T00:52:11.584Z,4.00
2017-11-23T00:54:39.603Z,3.72
2017-11-23T00:57:07.665Z,3.33
2017-11-23T00:59:35.701Z,3.00
2017-11-23T01:02:04.507Z,2.78
2017-11-23T01:04:33.305Z,3.05
2017-11-23T01:07:02.089Z,3.17
2017-11-23T01:09:30.116Z,2.40
2017-11-23T01:11:59.700Z,2.70
2017-11-23T01:14:27.737Z,3.25
2017-11-23T01:16:55.747Z,2.65
2017-11-23T01:19:23.780Z,3.28
2017-11-23T01:21:51.804Z,3.90
2017-11-23T01:24:19.844Z,3.25
2017-11-23T01:26:47.900Z,3.90
2017-11-23T01:29:15.908Z,2.45
2017-11-23T01:31:43.943Z,2.67
2017-11-23T01:34:11.922Z,2.45
2017-11-23T01:36:39.981Z,2.83
2017-11-23T01:39:07.958Z,2.70
2017-11-23T01:41:35.941Z,2.92
2017-11-23T01:44:03.973Z,2.60
2017-11-23T01:46:31.961Z,2.75
2017-11-23T01:49:00.730Z,3.05
2017-11-23T01:51:28.745Z,2.80
2017-11-23T01:53:57.506Z,2.72
2017-11-23T01:56:25.489Z,2.72
2017-11-23T01:58:53.521Z,3.33
2017-11-23T02:01:22.277Z,2.58
2017-11-23T02:03:50.280Z,2.78
2017-11-23T02:06:18.480Z,2.25
2017-11-23T02:08:47.234Z,2.85
2017-11-23T02:11:15.219Z,3.33
2017-11-23T02:13:43.226Z,2.83
2017-11-23T02:16:11.202Z,2.85
2017-11-23T02:18:39.182Z,3.22
2017-11-23T02:21:07.224Z,3.15
2017-11-23T02:23:35.209Z,3.08
2017-11-23T02:26:03.189Z,2.28
2017-11-23T02:28:31.205Z,2.25
2017-11-23T02:30:59.193Z,2.85
2017-11-23T02:33:27.210Z,2.30
2017-11-23T02:35:55.383Z,2.35
2017-11-23T02:38:23.368Z,3.00
2017-11-23T02:40:51.364Z,2.37
2017-11-23T02:43:19.418Z,2.33
2017-11-23T02:45:47.418Z,2.17
2017-11-23T02:48:15.394Z,2.80
2017-11-23T02:50:43.410Z,2.35
2017-11-23T02:53:11.389Z,2.50
2017-11-23T02:55:39.368Z,2.53
2017-11-23T02:58:07.397Z,2.37
2017-11-23T03:00:35.381Z,2.25
2017-11-23T03:03:03.377Z,2.30
2017-11-23T03:05:31.401Z,2.60
2017-11-23T03:07:59.386Z,2.28
2017-11-23T03:10:27.368Z,2.55
2017-11-23T03:12:55.388Z,2.70
2017-11-23T03:15:23.372Z,2.78
2017-11-23T03:17:51.356Z,2.72
2017-11-23T03:20:19.469Z,3.20
2017-11-23T03:22:47.455Z,2.40
2017-11-23T03:25:15.445Z,2.42
2017-11-23T03:27:44.217Z,2.40
2017-11-23T03:30:12.201Z,2.87
2017-11-23T03:32:40.196Z,3.37
2017-11-23T03:35:08.198Z,2.75
2017-11-23T03:37:36.953Z,2.60
2017-11-23T03:40:04.925Z,2.42
2017-11-23T03:42:32.962Z,2.30
2017-11-23T03:45:01.719Z,2.83
2017-11-23T03:47:29.713Z,2.75
2017-11-23T03:49:57.720Z,2.35
2017-11-23T03:52:26.481Z,2.50
2017-11-23T03:54:54.466Z,2.08
2017-11-23T03:57:22.529Z,2.58
2017-11-23T03:59:50.530Z,2.62
2017-11-23T04:02:18.513Z,2.60
2017-11-23T04:04:46.512Z,2.72
2017-11-23T04:07:14.493Z,1.98
2017-11-23T04:09:42.473Z,2.25
2017-11-23T04:12:10.477Z,2.33
2017-11-23T04:14:38.463Z,2.37
2017-11-23T04:17:07.237Z,2.40
2017-11-23T04:19:35.257Z,2.55
2017-11-23T04:22:04.001Z,2.22
2017-11-23T04:24:31.985Z,2.75
2017-11-23T04:27:00.010Z,2.78
2017-11-23T04:29:27.991Z,2.80
2017-11-23T04:31:55.971Z,2.42
2017-11-23T04:34:24.010Z,3.25
2017-11-23T04:36:51.989Z,2.83
2017-11-23T04:39:19.973Z,2.40
2017-11-23T04:41:48.005Z,2.45
2017-11-23T04:44:15.991Z,2.47
2017-11-23T04:46:43.967Z,2.67
2017-11-23T04:49:11.978Z,2.62
2017-11-23T04:51:39.958Z,2.30
2017-11-23T04:54:07.946Z,2.60
2017-11-23T04:56:35.959Z,2.37
2017-11-23T04:59:03.937Z,2.33
2017-11-23T05:01:31.922Z,2.42
2017-11-23T05:03:59.946Z,2.35
2017-11-23T05:06:27.929Z,2.25
2017-11-23T05:08:56.676Z,2.78
2017-11-23T05:11:24.806Z,3.25
2017-11-23T05:13:54.088Z,2.80
2017-11-23T05:16:22.073Z,2.90
2017-11-23T05:18:50.085Z,2.30
2017-11-23T05:21:18.070Z,2.60
2017-11-23T05:23:46.765Z,2.97
2017-11-23T05:26:14.788Z,2.55
2017-11-23T05:28:42.777Z,3.08
2017-11-23T05:31:10.754Z,3.03
2017-11-23T05:33:38.773Z,2.78
2017-11-23T05:36:06.761Z,2.33
2017-11-23T05:38:34.741Z,2.33
2017-11-23T05:41:03.670Z,2.05
2017-11-23T05:43:31.656Z,2.80
2017-11-23T05:45:59.629Z,2.33
2017-11-23T05:48:28.427Z,2.70
2017-11-23T05:50:56.406Z,2.58
2017-11-23T05:53:24.384Z,2.37
2017-11-23T05:55:52.586Z,1.65
2017-11-23T05:58:20.570Z,2.87
2017-11-23T06:00:48.551Z,2.47
2017-11-23T06:03:16.558Z,2.47
2017-11-23T06:05:45.273Z,2.50
2017-11-23T06:08:13.260Z,2.55
2017-11-23T06:10:41.265Z,2.22
2017-11-23T06:13:09.254Z,2.30
2017-11-23T06:15:37.234Z,2.05
2017-11-23T06:18:05.251Z,2.05
2017-11-23T06:20:33.226Z,2.28
2017-11-23T06:23:01.969Z,2.17
2017-11-23T06:25:30.069Z,2.58
2017-11-23T06:27:58.053Z,3.33
2017-11-23T06:30:26.037Z,2.92
2017-11-23T06:32:54.047Z,3.45
2017-11-23T06:35:22.025Z,4.20
2017-11-23T06:37:50.009Z,3.50
2017-11-23T06:40:18.021Z,3.42
2017-11-23T06:42:46.773Z,3.25
2017-11-23T06:45:14.753Z,3.05
2017-11-23T06:47:42.769Z,4.37
2017-11-23T06:50:10.753Z,4.95
2017-11-23T06:52:38.736Z,5.35
2017-11-23T06:55:06.751Z,3.72
2017-11-23T06:57:34.729Z,3.35
2017-11-23T07:00:02.718Z,3.10
2017-11-23T07:02:30.741Z,3.17
2017-11-23T07:04:58.722Z,3.28
2017-11-23T07:07:26.707Z,4.20
2017-11-23T07:09:54.716Z,4.55
2017-11-23T07:12:22.716Z,3.35
2017-11-23T07:14:51.464Z,4.10
2017-11-23T07:17:19.581Z,3.28
2017-11-23T07:19:47.557Z,3.67
2017-11-23T07:22:15.542Z,3.58
2017-11-23T07:24:43.558Z,3.28
2017-11-23T07:27:11.538Z,3.40
2017-11-23T07:29:39.518Z,2.83
2017-11-23T07:32:07.528Z,3.60
2017-11-23T07:34:35.509Z,2.67
2017-11-23T07:37:03.502Z,4.05
2017-11-23T07:39:31.518Z,3.22
2017-11-23T07:41:59.514Z,4.15
2017-11-23T07:44:27.502Z,3.20
2017-11-23T07:46:56.313Z,2.95
2017-11-23T07:49:25.093Z,2.92
2017-11-23T07:51:53.096Z,3.15
2017-11-23T07:54:21.894Z,3.40
2017-11-23T07:56:50.657Z,3.78
2017-11-23T07:59:18.683Z,2.95
2017-11-23T08:01:47.500Z,3.60
2017-11-23T08:04:15.487Z,4.05
2017-11-23T08:06:43.477Z,4.05
2017-11-23T08:09:11.505Z,2.95
2017-11-23T08:11:39.481Z,3.20
2017-11-23T08:14:07.473Z,3.22
2017-11-23T08:16:35.507Z,3.22
2017-11-23T08:19:03.490Z,3.55
2017-11-23T08:21:31.473Z,3.10
2017-11-23T08:23:59.505Z,3.42
2017-11-23T08:26:27.485Z,3.72
2017-11-23T08:28:55.461Z,2.20
2017-11-23T08:31:23.489Z,3.67
2017-11-23T08:33:51.498Z,2.90
2017-11-23T08:36:19.469Z,3.20
2017-11-23T08:38:47.473Z,2.65
2017-11-23T08:41:15.467Z,4.28
2017-11-23T08:43:43.516Z,2.70
2017-11-23T08:46:11.558Z,2.80
2017-11-23T08:48:40.309Z,4.07
2017-11-23T08:51:08.293Z,3.37
2017-11-23T08:53:36.315Z,2.80
2017-11-23T08:56:04.294Z,4.00
2017-11-23T08:58:32.273Z,2.90
2017-11-23T09:01:03.145Z,3.03
2017-11-23T09:03:31.892Z,2.97
2017-11-23T09:05:59.882Z,2.95
2017-11-23T09:08:27.896Z,3.10
2017-11-23T09:10:55.878Z,3.50
2017-11-23T09:13:23.857Z,3.40
2017-11-23T09:15:52.665Z,2.85
2017-11-23T09:18:21.414Z,3.60
2017-11-23T09:20:49.398Z,3.08
2017-11-23T09:23:17.413Z,3.28
2017-11-23T09:25:45.393Z,4.07
2017-11-23T09:28:13.379Z,4.15
2017-11-23T09:30:41.398Z,3.20
2017-11-23T09:33:09.377Z,3.40
2017-11-23T09:35:37.362Z,3.70
2017-11-23T09:38:05.380Z,2.85
2017-11-23T09:40:34.305Z,3.92
2017-11-23T09:43:02.285Z,3.90
2017-11-23T09:45:30.318Z,3.28
2017-11-23T09:47:58.297Z,3.58
2017-11-23T09:50:26.285Z,3.53
2017-11-23T09:52:54.313Z,3.67
2017-11-23T09:55:22.298Z,3.42
2017-11-23T09:57:50.282Z,3.30
2017-11-23T10:00:18.413Z,3.85
2017-11-23T10:02:46.399Z,3.35
2017-11-23T10:05:14.373Z,3.92
2017-11-23T10:07:42.393Z,4.37
2017-11-23T10:10:10.374Z,3.72
2017-11-23T10:12:38.353Z,3.70
2017-11-23T10:15:06.370Z,3.60
2017-11-23T10:17:34.357Z,3.75
2017-11-23T10:20:03.852Z,3.70
2017-11-23T10:22:31.861Z,3.78
2017-11-23T10:24:59.854Z,3.87
2017-11-23T10:27:28.605Z,3.60
2017-11-23T10:29:56.642Z,4.00
2017-11-23T10:32:25.389Z,4.15
2017-11-23T10:34:53.374Z,3.67
2017-11-23T10:37:27.229Z,3.72
2017-11-23T10:39:55.218Z,3.55
2017-11-23T10:42:23.201Z,3.30
2017-11-23T10:44:52.416Z,4.40
2017-11-23T10:47:21.170Z,4.00
2017-11-23T10:49:49.161Z,4.65
2017-11-23T10:52:17.221Z,3.60
2017-11-23T10:54:45.209Z,3.70
2017-11-23T10:57:13.199Z,3.62
2017-11-23T10:59:41.200Z,3.83
2017-11-23T11:02:09.212Z,4.10
2017-11-23T11:04:37.183Z,3.70
2017-11-23T11:07:05.194Z,4.30
2017-11-23T11:09:33.181Z,4.25
2017-11-23T11:12:01.169Z,3.80
2017-11-23T11:14:29.189Z,3.75
2017-11-23T11:16:57.194Z,3.65
2017-11-23T11:19:25.192Z,3.10
2017-11-23T11:21:53.978Z,3.83
2017-11-23T11:24:21.974Z,3.12
2017-11-23T11:26:50.733Z,3.20
2017-11-23T11:29:18.803Z,3.33
2017-11-23T11:31:46.786Z,3.58
2017-11-23T11:34:14.774Z,3.40
2017-11-23T11:36:42.791Z,2.90
2017-11-23T11:39:14.352Z,3.20
2017-11-23T11:41:43.374Z,3.30
2017-11-23T11:44:12.129Z,3.95
2017-11-23T11:46:40.126Z,3.60
2017-11-23T11:49:08.142Z,3.45
2017-11-23T11:51:36.901Z,4.10
2017-11-23T11:54:04.902Z,3.42
2017-11-23T11:56:32.927Z,3.10
2017-11-23T11:59:00.914Z,3.87
2017-11-23T12:01:28.910Z,3.72
2017-11-23T12:03:56.929Z,2.70
2017-11-23T12:06:24.921Z,3.35
2017-11-23T12:08:52.912Z,3.17
2017-11-23T12:11:21.698Z,3.47
2017-11-23T12:14:01.607Z,4.62
2017-11-23T12:19:21.129Z,3.12
2017-11-23T12:22:00.626Z,2.95
2017-11-23T12:24:30.313Z,3.00
2017-11-23T12:26:58.302Z,2.62
2017-11-23T12:29:38.200Z,2.50
2017-11-23T12:32:06.191Z,2.62
2017-11-23T12:34:34.173Z,2.40
2017-11-23T12:37:02.225Z,2.72
2017-11-23T12:39:30.201Z,3.15
2017-11-23T12:41:58.189Z,3.90
2017-11-23T12:44:26.204Z,2.53
2017-11-23T12:46:54.191Z,2.45
2017-11-23T12:49:22.181Z,2.30
2017-11-23T12:51:50.996Z,3.47
2017-11-23T12:54:19.750Z,2.28
2017-11-23T12:56:47.740Z,2.92
2017-11-23T12:59:15.949Z,2.40
2017-11-23T13:01:44.717Z,2.35
2017-11-23T13:04:12.693Z,2.35
2017-11-23T13:06:40.742Z,2.20
2017-11-23T13:09:08.729Z,2.75
2017-11-23T13:11:36.716Z,1.70
2017-11-23T13:14:04.737Z,3.35
2017-11-23T13:16:32.730Z,1.98
2017-11-23T13:19:01.510Z,2.53
2017-11-23T13:21:29.533Z,2.25
2017-11-23T13:23:58.286Z,2.58
2017-11-23T13:26:26.269Z,2.33
2017-11-23T13:28:54.301Z,1.80
2017-11-23T13:31:22.293Z,2.12
2017-11-23T13:33:51.083Z,2.20
2017-11-23T13:36:19.131Z,2.28
2017-11-23T13:38:47.117Z,2.30
2017-11-23T13:41:15.110Z,2.35
2017-11-23T13:43:43.337Z,2.83
2017-11-23T13:46:11.320Z,2.47
2017-11-23T13:48:39.318Z,2.35
2017-11-23T13:51:07.354Z,1.85
2017-11-23T13:53:35.437Z,2.37
2017-11-23T13:56:03.436Z,2.00
2017-11-23T13:58:32.241Z,2.35
2017-11-23T14:01:01.002Z,2.60
2017-11-23T14:03:28.990Z,1.75
2017-11-23T14:05:57.072Z,2.30
2017-11-23T14:08:25.045Z,1.83
2017-11-23T14:10:53.041Z,2.12
2017-11-23T14:13:21.049Z,1.90
2017-11-23T14:15:49.821Z,2.22
2017-11-23T14:18:17.820Z,2.15
2017-11-23T14:20:45.870Z,2.37
2017-11-23T14:23:13.862Z,2.60
2017-11-23T14:25:41.845Z,2.47
2017-11-23T14:28:09.882Z,2.67
2017-11-23T14:30:37.866Z,4.47
2017-11-23T14:33:05.858Z,2.70
2017-11-23T14:35:33.881Z,2.97
2017-11-23T14:38:01.869Z,2.40
2017-11-23T14:40:29.858Z,3.50
2017-11-23T14:42:57.877Z,2.70
2017-11-23T14:45:25.869Z,3.75
2017-11-23T14:47:53.854Z,2.85
2017-11-23T14:50:21.879Z,2.55
2017-11-23T14:52:49.867Z,2.80
2017-11-23T14:55:17.869Z,2.80
2017-11-23T14:57:45.880Z,2.40
2017-11-23T15:00:13.869Z,2.70
2017-11-23T15:02:41.853Z,2.83
2017-11-23T15:05:09.866Z,2.80
2017-11-23T15:07:37.857Z,3.05
2017-11-23T15:10:05.838Z,2.58
2017-11-23T15:12:33.873Z,2.97
2017-11-23T15:15:02.609Z,2.65
2017-11-23T15:17:30.610Z,3.00
2017-11-23T15:19:58.641Z,2.78
2017-11-23T15:22:26.629Z,2.75
2017-11-23T15:24:54.614Z,2.55
2017-11-23T15:27:22.622Z,2.78
2017-11-23T15:29:50.606Z,2.45
2017-11-23T15:32:18.601Z,2.35
2017-11-23T15:34:46.634Z,3.53
2017-11-23T15:37:14.617Z,2.37
2017-11-23T15:39:42.601Z,2.90
2017-11-23T15:42:10.625Z,2.72
2017-11-23T15:44:38.610Z,2.45
2017-11-23T15:47:06.599Z,2.80
2017-11-23T15:49:34.630Z,2.72
2017-11-23T15:52:02.624Z,2.95
2017-11-23T15:54:30.605Z,3.33
2017-11-23T15:56:58.620Z,3.15
2017-11-23T15:59:26.602Z,2.65
2017-11-23T16:01:54.593Z,3.28
2017-11-23T16:04:22.613Z,2.80
2017-11-23T16:06:50.614Z,2.55
2017-11-23T16:09:19.527Z,2.70
2017-11-23T16:11:47.541Z,2.62
2017-11-23T16:14:15.534Z,2.70
2017-11-23T16:16:43.551Z,2.80
2017-11-23T16:19:12.341Z,2.92
2017-11-23T16:21:41.090Z,2.80
2017-11-23T16:24:09.081Z,2.85
2017-11-23T16:26:37.102Z,3.87
2017-11-23T16:29:05.858Z,3.03
2017-11-23T16:31:33.862Z,3.22
2017-11-23T16:34:01.890Z,2.67
2017-11-23T16:36:33.833Z,3.20
2017-11-23T16:39:01.833Z,3.28
2017-11-23T16:41:30.601Z,2.50
2017-11-23T16:44:04.314Z,2.70
2017-11-23T16:46:38.101Z,3.50
2017-11-23T16:49:25.857Z,2.85
2017-11-23T16:51:59.546Z,2.97
2017-11-23T16:54:33.152Z,2.50
2017-11-23T16:57:06.741Z,2.87
2017-11-23T16:59:37.596Z,3.62
2017-11-23T17:02:11.276Z,2.90
2017-11-23T17:04:45.946Z,2.90
2017-11-23T17:10:22.322Z,3.28
2017-11-23T17:13:00.953Z,3.00
2017-11-23T17:15:34.754Z,2.70
2017-11-23T17:18:19.583Z,3.37
2017-11-23T17:20:47.650Z,3.40
2017-11-23T17:23:15.631Z,3.12
2017-11-23T17:25:43.957Z,3.85
2017-11-23T17:28:11.941Z,3.40
2017-11-23T17:30:40.741Z,3.67
2017-11-23T17:33:09.493Z,3.87
2017-11-23T17:35:37.539Z,3.22
2017-11-23T17:38:06.297Z,3.75
2017-11-23T17:40:34.278Z,3.30
2017-11-23T17:43:02.298Z,3.03
2017-11-23T17:45:31.054Z,3.45
2017-11-23T17:47:59.038Z,3.22
2017-11-23T17:50:27.098Z,3.42
2017-11-23T17:52:55.089Z,3.55
2017-11-23T17:55:23.108Z,3.25
2017-11-23T17:57:52.013Z,3.08
2017-11-23T18:00:20.014Z,3.70
2017-11-23T18:02:48.773Z,3.22
2017-11-23T18:05:16.788Z,3.25
2017-11-23T18:07:44.766Z,3.62
2017-11-23T18:10:13.521Z,3.50
2017-11-23T18:12:41.549Z,3.45
2017-11-23T18:15:09.541Z,3.03
2017-11-23T18:17:38.289Z,3.60
2017-11-23T18:20:06.308Z,3.05
2017-11-23T18:22:34.289Z,3.62
2017-11-23T18:25:02.273Z,3.97
2017-11-23T18:27:30.301Z,4.20
2017-11-23T18:29:58.281Z,3.50
2017-11-23T18:32:26.266Z,4.00
2017-11-23T18:34:54.627Z,3.70
2017-11-23T18:37:23.386Z,3.75
2017-11-23T18:39:51.369Z,4.30
2017-11-23T18:42:19.385Z,3.58
2017-11-23T18:44:48.156Z,4.18
2017-11-23T18:47:16.142Z,3.65
2017-11-23T18:49:44.158Z,3.55
2017-11-23T18:52:12.910Z,3.50
2017-11-23T18:54:40.897Z,3.78
2017-11-23T18:57:08.942Z,3.12
2017-11-23T18:59:36.927Z,2.97
2017-11-23T19:02:04.905Z,3.10
2017-11-23T19:04:32.921Z,3.72
2017-11-23T19:07:00.918Z,3.08
2017-11-23T19:09:28.939Z,3.33
2017-11-23T19:11:57.744Z,3.12
2017-11-23T19:14:26.493Z,3.28
2017-11-23T19:16:54.478Z,3.80
2017-11-23T19:19:22.492Z,3.30
2017-11-23T19:21:51.265Z,3.22
2017-11-23T19:24:19.251Z,3.60
2017-11-23T19:26:47.269Z,3.90
2017-11-23T19:29:16.023Z,3.37
2017-11-23T19:31:44.008Z,4.07
2017-11-23T19:34:12.017Z,4.35
2017-11-23T19:36:40.005Z,3.75
2017-11-23T19:39:09.287Z,3.22
2017-11-23T19:41:37.297Z,3.80
2017-11-23T19:44:05.285Z,3.97
2017-11-23T19:46:33.265Z,3.37
2017-11-23T19:49:01.290Z,4.70
2017-11-23T19:51:29.269Z,3.40
2017-11-23T19:53:57.264Z,4.28
2017-11-23T19:56:25.420Z,4.25
2017-11-23T19:58:54.162Z,4.37
2017-11-23T20:01:22.153Z,4.57
2017-11-23T20:03:50.255Z,4.00
2017-11-23T20:06:18.236Z,4.25
2017-11-23T20:08:46.220Z,3.90
2017-11-23T20:11:14.345Z,3.28
2017-11-23T20:13:44.319Z,4.40
2017-11-23T20:16:12.297Z,3.70
2017-11-23T20:18:40.322Z,4.28
2017-11-23T20:21:09.069Z,4.10
2017-11-23T20:23:37.303Z,3.30
2017-11-23T20:26:05.331Z,4.10
2017-11-23T20:28:33.340Z,3.90
2017-11-23T20:31:01.321Z,4.15
2017-11-23T20:33:29.350Z,4.45
2017-11-23T20:35:58.097Z,5.15
2017-11-23T20:38:26.082Z,3.67
2017-11-23T20:40:54.111Z,3.87
2017-11-23T20:43:22.858Z,3.65
2017-11-23T20:45:50.846Z,3.80
2017-11-23T20:48:18.854Z,3.87
2017-11-23T20:50:46.842Z,4.30
2017-11-23T20:53:14.820Z,3.85
2017-11-23T20:55:42.840Z,3.45
2017-11-23T20:58:10.829Z,4.30
2017-11-23T21:00:38.818Z,4.40
2017-11-23T21:03:06.837Z,3.47
2017-11-23T21:05:34.826Z,3.83
2017-11-23T21:08:02.811Z,4.07
2017-11-23T21:10:30.827Z,3.40
2017-11-23T21:12:59.576Z,3.45
2017-11-23T21:15:27.564Z,3.40
2017-11-23T21:17:55.585Z,3.47
2017-11-23T21:20:24.350Z,3.80
2017-11-23T21:22:52.353Z,3.55
2017-11-23T21:25:20.370Z,3.45
2017-11-23T21:27:48.354Z,3.42
2017-11-23T21:30:16.335Z,3.65
2017-11-23T21:32:44.341Z,3.45
2017-11-23T21:35:12.325Z,3.22
2017-11-23T21:37:40.313Z,3.53
2017-11-23T21:40:08.845Z,3.60
2017-11-23T21:42:36.848Z,2.95
2017-11-23T21:45:05.597Z,3.40
2017-11-23T21:47:33.809Z,3.35
2017-11-23T21:50:01.806Z,2.92
2017-11-23T21:52:29.778Z,3.45
2017-11-23T21:54:57.802Z,3.03
2017-11-23T21:57:25.798Z,3.55
2017-11-23T21:59:53.778Z,2.75
2017-11-23T22:02:21.794Z,3.12
2017-11-23T22:04:50.543Z,3.80
2017-11-23T22:07:18.527Z,3.97
2017-11-23T22:09:46.533Z,3.25
2017-11-23T22:12:14.513Z,3.22
2017-11-23T22:14:42.598Z,3.40
2017-11-23T22:17:10.607Z,3.00
2017-11-23T22:19:38.585Z,3.62
2017-11-23T22:22:06.565Z,3.37
2017-11-23T22:24:34.665Z,3.10
2017-11-23T22:27:02.676Z,3.72
2017-11-23T22:29:30.665Z,3.40
2017-11-23T22:31:59.851Z,3.20
2017-11-23T22:34:27.834Z,3.50
2017-11-23T22:36:55.825Z,3.53
2017-11-23T22:39:24.006Z,3.15
2017-11-23T22:41:51.986Z,3.40
2017-11-23T22:44:19.977Z,3.62
2017-11-23T22:46:48.765Z,3.70
2017-11-23T22:49:16.745Z,3.62
2017-11-23T22:51:45.501Z,3.90
2017-11-23T22:54:13.515Z,4.10
2017-11-23T22:56:41.522Z,5.00
2017-11-23T22:59:10.846Z,5.12
2017-11-23T23:01:38.848Z,4.20
2017-11-23T23:04:06.833Z,4.20
2017-11-23T23:06:34.813Z,3.45
2017-11-23T23:09:02.830Z,4.07
2017-11-23T23:11:30.846Z,3.92
2017-11-23T23:13:59.592Z,4.72
2017-11-23T23:16:27.601Z,3.72
2017-11-23T23:18:55.581Z,3.03
2017-11-23T23:21:23.572Z,3.70
2017-11-23T23:23:51.601Z,3.80
2017-11-23T23:26:19.581Z,3.10
2017-11-23T23:28:47.582Z,3.85
2017-11-23T23:31:15.627Z,3.65
2017-11-23T23:33:43.607Z,3.33
2017-11-23T23:36:12.361Z,3.25
2017-11-23T23:38:40.413Z,4.10
2017-11-23T23:41:08.480Z,4.03
2017-11-23T23:43:37.226Z,2.97
2017-11-23T23:46:05.350Z,3.20
2017-11-23T23:48:33.333Z,3.78
2017-11-23T23:51:01.313Z,4.10
2017-11-23T23:53:29.334Z,3.60
2017-11-23T23:55:57.312Z,3.50
2017-11-23T23:58:25.301Z,4.10
